Time;durP1;ratioP1;P1;durP2;ratioP2;P2;SDS_P1;SDS_P2;PMS_P1;PMS_P2;Temp;Humidity;BMP_temperature;BMP_pressure;BME280_temperature;BME280_humidity;BME280_pressure;Samples;Min_cycle;Max_cycle;Signal;HPM_P1;HPM_P2
2022/06/09 00:00:01;;;;;;;6.35;6.05;;;;;;;17.69;84.24;100093.28;5055412;28;20029;-60
2022/06/09 00:02:30;;;;;;;6.20;6.00;;;;;;;17.60;84.52;100097.38;5053417;28;20033;-60
2022/06/09 00:04:58;;;;;;;6.18;5.97;;;;;;;17.46;84.73;100093.25;5051661;28;20037;-60
2022/06/09 00:07:24;;;;;;;6.20;6.00;;;;;;;17.33;85.24;100095.13;5049439;28;20396;-59
2022/06/09 00:10:01;;;;;;;6.05;5.85;;;;;;;17.34;86.72;100083.34;5037513;28;20075;-60
2022/06/09 00:12:27;;;;;;;6.10;5.90;;;;;;;17.39;87.06;100091.50;5054123;28;20028;-60
2022/06/09 00:14:56;;;;;;;6.45;6.15;;;;;;;17.43;88.01;100088.38;5055148;28;20021;-60
2022/06/09 00:17:23;;;;;;;6.20;6.00;;;;;;;17.46;88.79;100085.22;5054011;28;20083;-60
2022/06/09 00:19:50;;;;;;;6.00;5.80;;;;;;;17.34;90.66;100091.38;5060753;28;20028;-60
2022/06/09 00:22:15;;;;;;;5.90;5.70;;;;;;;17.32;90.57;100089.97;5055227;28;20108;-60
2022/06/09 00:24:41;;;;;;;6.20;6.00;;;;;;;17.44;91.32;100090.00;5055080;28;20111;-60
2022/06/09 00:27:06;;;;;;;6.60;6.30;;;;;;;17.30;91.91;100090.19;5051373;28;20039;-58
2022/06/09 00:29:32;;;;;;;6.28;6.05;;;;;;;17.31;92.20;100091.84;5053823;28;20033;-60
2022/06/09 00:31:57;;;;;;;6.35;6.05;;;;;;;17.27;93.52;100098.72;5054865;28;20090;-59
2022/06/09 00:34:23;;;;;;;6.20;6.00;;;;;;;17.19;95.83;100107.09;5047083;28;20026;-59
2022/06/09 00:36:48;;;;;;;6.10;5.90;;;;;;;17.25;93.64;100102.66;5055295;28;20064;-59
2022/06/09 00:39:14;;;;;;;6.00;5.80;;;;;;;17.19;95.21;100109.75;5054595;28;20024;-59
2022/06/09 00:41:41;;;;;;;6.40;6.10;;;;;;;17.19;94.82;100107.09;5052335;28;20033;-60
2022/06/09 00:44:15;;;;;;;6.00;5.80;;;;;;;17.04;95.21;100096.78;5053261;28;20024;-61
2022/06/09 00:46:42;;;;;;;5.97;5.78;;;;;;;17.10;94.47;100103.88;5054399;28;20048;-59
2022/06/09 00:49:38;;;;;;;6.40;6.10;;;;;;;17.13;94.38;100097.28;5053971;28;20063;-59
2022/06/09 00:52:07;;;;;;;6.10;5.90;;;;;;;17.08;93.36;100102.50;5052863;28;20492;-60
2022/06/09 00:54:43;;;;;;;5.95;5.75;;;;;;;17.12;93.84;100103.69;5065159;28;20029;-60
2022/06/09 00:57:17;;;;;;;6.20;6.00;;;;;;;17.08;94.03;100103.31;5054403;28;20040;-60
2022/06/09 00:59:46;;;;;;;;;;;;;;;16.98;93.96;100107.59;5039265;28;20036;-60
2022/06/09 01:02:15;;;;;;;6.10;5.90;;;;;;;16.95;93.45;100105.34;5054582;28;19915;-60
2022/06/09 01:04:41;;;;;;;6.10;5.90;;;;;;;16.90;94.23;100107.91;5054138;28;20028;-61
2022/06/09 01:07:14;;;;;;;6.60;6.30;;;;;;;16.85;95.80;100119.28;5050280;28;20366;-61
2022/06/09 01:09:39;;;;;;;5.90;5.70;;;;;;;16.90;94.99;100118.63;5050909;28;20068;-59
2022/06/09 01:12:30;;;;;;;6.10;5.90;;;;;;;16.89;95.43;100120.44;5054395;28;20113;-59
2022/06/09 01:15:01;;;;;;;6.18;5.97;;;;;;;16.85;95.66;100127.31;5052512;28;20032;-59
2022/06/09 01:17:42;;;;;;;6.00;5.80;;;;;;;16.74;100.00;100123.53;5052907;28;20115;-60
2022/06/09 01:20:10;;;;;;;5.90;5.70;;;;;;;16.68;99.07;100127.09;5052658;28;20440;-60
2022/06/09 01:23:19;;;;;;;6.05;5.85;;;;;;;16.63;95.90;100132.28;5053841;28;20029;-61
2022/06/09 01:25:54;;;;;;;6.18;5.93;;;;;;;16.56;94.19;100126.19;5053918;28;20357;-60
2022/06/09 01:28:34;;;;;;;5.90;5.70;;;;;;;16.60;94.18;100124.72;5066186;28;20075;-59
2022/06/09 01:31:03;;;;;;;5.80;5.60;;;;;;;16.64;93.72;100125.91;5053999;28;20025;-59
2022/06/09 01:33:34;;;;;;;6.20;6.00;;;;;;;16.66;94.44;100131.84;5051676;28;20025;-59
2022/06/09 01:36:16;;;;;;;6.18;5.97;;;;;;;16.67;94.11;100125.47;5053692;28;20086;-59
2022/06/09 01:38:51;;;;;;;6.00;5.80;;;;;;;16.68;95.00;100118.25;5053623;28;20029;-59
2022/06/09 01:41:17;;;;;;;6.38;6.07;;;;;;;16.74;93.76;100128.06;5053496;28;20037;-59
2022/06/09 01:43:46;;;;;;;6.25;6.03;;;;;;;16.77;93.82;100127.63;5054002;28;20404;-60
2022/06/09 01:46:19;;;;;;;6.03;5.82;;;;;;;16.64;94.16;100125.06;5053295;28;20049;-58
2022/06/09 01:48:46;;;;;;;5.90;5.70;;;;;;;16.55;92.59;100124.56;5030912;28;20554;-59
2022/06/09 01:51:17;;;;;;;6.20;6.00;;;;;;;16.50;93.25;100119.06;5047060;28;20044;-61
2022/06/09 01:53:57;;;;;;;6.43;6.13;;;;;;;16.44;93.05;100125.28;5053191;28;20079;-60
2022/06/09 01:56:28;;;;;;;6.22;6.00;;;;;;;16.29;93.41;100114.94;5049355;28;20036;-60
2022/06/09 01:58:59;;;;;;;6.30;6.05;;;;;;;16.17;93.95;100114.06;5053178;28;20378;-60
2022/06/09 02:01:33;;;;;;;6.20;6.00;;;;;;;16.22;92.31;100115.00;5053292;28;20082;-61
2022/06/09 02:04:03;;;;;;;6.20;6.00;;;;;;;16.23;91.58;100118.50;5052344;28;20490;-60
2022/06/09 02:06:31;;;;;;;6.07;5.88;;;;;;;16.12;92.28;100117.41;5051956;28;20025;-59
2022/06/09 02:08:57;;;;;;;6.00;5.80;;;;;;;16.17;91.39;100114.06;5051133;28;20392;-60
2022/06/09 02:11:22;;;;;;;6.03;5.82;;;;;;;16.18;91.14;100118.38;5049444;28;20107;-60
2022/06/09 02:13:52;;;;;;;6.50;6.20;;;;;;;16.15;91.44;100124.16;5039238;28;20472;-60
2022/06/09 02:16:21;;;;;;;6.40;6.10;;;;;;;16.17;91.81;100125.59;5052848;28;20025;-60
2022/06/09 02:18:51;;;;;;;6.00;5.80;;;;;;;16.33;90.09;100118.00;5053901;28;20028;-59
2022/06/09 02:21:17;;;;;;;6.50;6.20;;;;;;;16.43;89.74;100123.66;5051993;28;20031;-59
2022/06/09 02:23:43;;;;;;;6.00;5.80;;;;;;;16.38;89.98;100123.50;5052548;28;20025;-59
2022/06/09 02:26:09;;;;;;;6.10;5.90;;;;;;;16.39;88.68;100131.34;5042003;28;20078;-60
2022/06/09 02:28:35;;;;;;;6.00;5.80;;;;;;;16.25;89.23;100130.66;5052545;28;20028;-60
2022/06/09 02:31:02;;;;;;;6.00;5.80;;;;;;;16.27;89.36;100123.22;5052903;28;20078;-60
2022/06/09 02:33:28;;;;;;;6.10;5.90;;;;;;;16.37;88.80;100133.38;5052454;28;20020;-59
2022/06/09 02:35:53;;;;;;;5.97;5.78;;;;;;;16.42;89.39;100127.38;5057590;28;20036;-60
2022/06/09 02:38:20;;;;;;;6.00;5.80;;;;;;;16.34;90.15;100131.16;5051366;28;20033;-60
2022/06/09 02:40:46;;;;;;;5.95;5.75;;;;;;;16.16;92.26;100126.63;5052276;28;20020;-61
2022/06/09 02:43:13;;;;;;;6.13;5.93;;;;;;;16.35;91.52;100123.97;5051613;28;20059;-60
2022/06/09 02:45:40;;;;;;;6.07;5.88;;;;;;;17.01;87.76;100129.38;5052299;28;20041;-60
2022/06/09 02:48:06;;;;;;;6.40;6.10;;;;;;;17.41;85.67;100134.19;5052069;28;20033;-61
2022/06/09 02:50:33;;;;;;;5.90;5.70;;;;;;;17.18;87.32;100139.44;5052144;28;20017;-59
2022/06/09 02:52:59;;;;;;;6.43;6.13;;;;;;;17.78;84.75;100134.88;5050142;28;20024;-60
2022/06/09 02:55:26;;;;;;;6.30;6.05;;;;;;;18.28;83.73;100137.09;5052084;28;20037;-59
2022/06/09 02:57:51;;;;;;;6.30;6.05;;;;;;;18.77;82.58;100133.06;5052107;28;20023;-60
2022/06/09 03:00:17;;;;;;;6.40;6.10;;;;;;;19.77;75.15;100130.88;5051216;28;20028;-61
2022/06/09 03:02:49;;;;;;;6.25;6.03;;;;;;;20.98;66.92;100136.34;5052159;28;20175;-60
2022/06/09 03:05:16;;;;;;;6.40;6.10;;;;;;;21.25;63.91;100134.47;5051980;28;20056;-61
2022/06/09 03:07:41;;;;;;;6.55;6.25;;;;;;;21.49;64.24;100128.78;5047337;28;20021;-61
2022/06/09 03:10:07;;;;;;;6.50;6.20;;;;;;;23.05;57.82;100131.91;5049421;28;20526;-60
2022/06/09 03:12:32;;;;;;;6.65;6.35;;;;;;;23.77;55.39;100130.94;5052090;28;20067;-61
2022/06/09 03:14:58;;;;;;;6.70;6.40;;;;;;;24.36;52.45;100133.03;5051903;28;20510;-61
2022/06/09 03:17:24;;;;;;;6.75;6.45;;;;;;;24.34;51.41;100132.53;5050699;28;20046;-61
2022/06/09 03:19:50;;;;;;;6.50;6.20;;;;;;;25.00;49.70;100139.56;5051327;28;20095;-61
2022/06/09 03:22:15;;;;;;;6.47;6.18;;;;;;;25.60;48.38;100138.38;5051463;28;20396;-61
2022/06/09 03:24:42;;;;;;;6.60;6.30;;;;;;;25.58;48.04;100142.50;5047163;28;20062;-60
2022/06/09 03:27:07;;;;;;;6.70;6.40;;;;;;;26.18;46.35;100135.72;5048230;28;20073;-60
2022/06/09 03:29:33;;;;;;;6.60;6.30;;;;;;;26.41;45.56;100133.34;5051641;28;20033;-60
2022/06/09 03:31:58;;;;;;;6.80;6.50;;;;;;;27.05;44.16;100140.19;5051483;28;20373;-60
2022/06/09 03:34:24;;;;;;;6.78;6.47;;;;;;;27.16;43.75;100138.13;5050408;28;20032;-60
2022/06/09 03:36:49;;;;;;;6.72;6.43;;;;;;;27.47;42.68;100136.56;5051934;28;20033;-60
2022/06/09 03:39:15;;;;;;;6.72;6.43;;;;;;;28.24;40.82;100141.53;5049865;28;20029;-61
2022/06/09 03:41:40;;;;;;;6.70;6.40;;;;;;;28.55;40.20;100138.22;5044353;28;20064;-60
2022/06/09 03:44:06;;;;;;;6.97;6.68;;;;;;;28.46;40.02;100140.06;5048207;28;20033;-61
2022/06/09 03:46:32;;;;;;;6.72;6.43;;;;;;;29.17;38.79;100139.38;5049230;28;20080;-60
2022/06/09 03:48:58;;;;;;;6.90;6.60;;;;;;;29.52;38.05;100141.59;5050526;28;20159;-59
2022/06/09 03:51:23;;;;;;;6.80;6.50;;;;;;;30.48;36.29;100144.59;5054082;28;20112;-59
2022/06/09 03:53:49;;;;;;;6.90;6.60;;;;;;;30.10;37.09;100144.25;5043830;28;20027;-59
2022/06/09 03:56:17;;;;;;;6.72;6.43;;;;;;;30.77;35.56;100145.97;5044312;28;20037;-60
2022/06/09 03:58:44;;;;;;;6.75;6.45;;;;;;;29.99;36.60;100149.16;5047345;28;20047;-59
2022/06/09 04:01:16;;;;;;;6.82;6.53;;;;;;;30.16;36.08;100145.72;5054654;28;20028;-61
2022/06/09 04:03:42;;;;;;;7.00;6.70;;;;;;;30.22;36.19;100143.69;5060619;28;20028;-60
2022/06/09 04:06:13;;;;;;;6.97;6.68;;;;;;;30.95;34.75;100146.81;5052090;28;20025;-59
2022/06/09 04:08:39;;;;;;;6.90;6.60;;;;;;;30.86;35.24;100146.00;5047124;28;20144;-60
2022/06/09 04:11:04;;;;;;;6.80;6.50;;;;;;;29.61;36.36;100139.75;5041217;28;20153;-60
2022/06/09 04:13:30;;;;;;;6.70;6.40;;;;;;;30.34;35.93;100138.44;5051861;28;20045;-59
2022/06/09 04:15:55;;;;;;;6.80;6.50;;;;;;;30.90;35.16;100144.22;5059922;28;20020;-59
2022/06/09 04:18:21;;;;;;;6.90;6.60;;;;;;;31.04;34.00;100140.22;5062529;28;20512;-59
2022/06/09 04:20:47;;;;;;;6.60;6.30;;;;;;;28.55;38.56;100140.97;5057888;28;20017;-59
2022/06/09 04:23:12;;;;;;;6.85;6.55;;;;;;;27.07;41.66;100139.88;5053642;28;20582;-60
2022/06/09 04:25:39;;;;;;;6.80;6.50;;;;;;;26.16;44.81;100142.56;5046893;28;20025;-60
2022/06/09 04:28:05;;;;;;;6.47;6.18;;;;;;;26.10;45.10;100141.78;5046512;28;20496;-60
2022/06/09 04:30:30;;;;;;;6.72;6.43;;;;;;;25.73;46.07;100138.88;5050957;28;20048;-62
2022/06/09 04:32:57;;;;;;;6.70;6.40;;;;;;;26.66;44.58;100134.94;5051726;28;20435;-62
2022/06/09 04:35:24;;;;;;;6.68;6.38;;;;;;;26.56;43.92;100129.63;5056469;28;20036;-62
2022/06/09 04:38:02;;;;;;;6.70;6.40;;;;;;;26.71;43.49;100135.69;5052972;28;20110;-62
2022/06/09 04:40:32;;;;;;;6.65;6.35;;;;;;;25.39;46.43;100130.69;5063964;28;20089;-61
2022/06/09 04:42:58;;;;;;;6.80;6.50;;;;;;;26.35;43.13;100137.16;5066485;28;20046;-61
2022/06/09 04:45:23;;;;;;;7.03;6.72;;;;;;;27.77;40.75;100135.28;5045800;28;20135;-61
2022/06/09 04:47:49;;;;;;;6.90;6.60;;;;;;;31.04;35.00;100145.69;5059090;28;20020;-61
2022/06/09 04:50:16;;;;;;;7.10;6.80;;;;;;;31.67;33.29;100148.97;5050043;28;20029;-60
2022/06/09 04:52:42;;;;;;;7.15;6.85;;;;;;;32.05;33.51;100140.03;5065006;28;20625;-61
2022/06/09 04:55:09;;;;;;;7.30;7.00;;;;;;;32.77;31.90;100149.25;5058433;28;20539;-62
2022/06/09 04:57:34;;;;;;;7.22;6.93;;;;;;;30.69;33.84;100136.59;5053768;28;20067;-62
2022/06/09 05:00:00;;;;;;;7.30;7.00;;;;;;;28.27;38.48;100137.38;5042421;28;20056;-61
2022/06/09 05:02:27;;;;;;;7.40;7.10;;;;;;;31.35;34.24;100139.28;5052817;28;20047;-62
2022/06/09 05:04:53;;;;;;;7.30;7.00;;;;;;;34.20;29.87;100141.53;5054118;28;20025;-62
2022/06/09 05:07:18;;;;;;;7.45;7.15;;;;;;;33.09;30.84;100134.81;5055931;28;20200;-63
2022/06/09 05:09:44;;;;;;;7.20;6.90;;;;;;;33.24;30.83;100134.22;5067852;28;20036;-61
2022/06/09 05:12:09;;;;;;;6.95;6.65;;;;;;;34.05;29.90;100141.06;5062962;28;20063;-62
2022/06/09 05:14:35;;;;;;;7.10;6.80;;;;;;;35.70;27.63;100139.50;5064296;28;20029;-62
2022/06/09 05:17:00;;;;;;;7.18;6.88;;;;;;;35.76;27.36;100140.00;5062762;28;20508;-62
2022/06/09 05:19:26;;;;;;;7.40;7.10;;;;;;;35.80;27.29;100149.19;5059389;28;20483;-61
2022/06/09 05:21:51;;;;;;;7.30;7.00;;;;;;;36.61;26.43;100143.38;5037758;28;20440;-60
2022/06/09 05:24:17;;;;;;;7.15;6.85;;;;;;;35.85;27.29;100145.38;5019254;28;20032;-59
2022/06/09 05:26:42;;;;;;;7.05;6.75;;;;;;;37.13;25.99;100139.41;5019232;28;20485;-60
2022/06/09 05:29:08;;;;;;;7.30;7.00;;;;;;;37.33;25.15;100136.31;5028856;28;20044;-61
2022/06/09 05:31:33;;;;;;;7.10;6.80;;;;;;;37.45;25.44;100138.13;5056239;28;20396;-60
2022/06/09 05:33:59;;;;;;;7.28;6.97;;;;;;;37.76;24.66;100137.16;5057994;28;20032;-61
2022/06/09 05:36:25;;;;;;;7.30;7.00;;;;;;;36.53;26.09;100142.41;5049792;28;20037;-61
2022/06/09 05:47:03;;;;;;;7.15;6.85;;;;;;;34.83;27.43;100159.38;5051306;28;20055;-60
2022/06/09 05:49:30;;;;;;;7.10;6.80;;;;;;;34.06;28.21;100152.88;5050055;28;20392;-61
2022/06/09 05:51:57;;;;;;;7.15;6.85;;;;;;;34.60;28.18;100148.03;5056016;28;20514;-60
2022/06/09 05:54:23;;;;;;;7.07;6.78;;;;;;;31.29;33.12;100143.34;5049376;28;20116;-60
2022/06/09 05:56:48;;;;;;;6.90;6.60;;;;;;;32.90;29.31;100149.00;5041159;28;20108;-60
2022/06/09 05:59:14;;;;;;;7.18;6.88;;;;;;;33.57;30.11;100147.22;5061311;28;20027;-61
2022/06/09 06:01:40;;;;;;;7.07;6.78;;;;;;;36.41;26.46;100148.81;5054639;28;20032;-60
2022/06/09 06:04:08;;;;;;;6.93;6.63;;;;;;;33.65;28.97;100149.09;5048238;28;20028;-60
2022/06/09 06:06:34;;;;;;;7.15;6.85;;;;;;;34.01;28.72;100156.69;5046116;28;20520;-61
2022/06/09 06:09:02;;;;;;;7.07;6.78;;;;;;;29.79;36.08;100152.41;5044709;28;20103;-61
2022/06/09 06:11:27;;;;;;;7.13;6.82;;;;;;;31.85;30.67;100141.53;5052167;28;20066;-61
2022/06/09 06:13:54;;;;;;;7.10;6.80;;;;;;;32.14;31.65;100144.34;5057741;28;20449;-61
2022/06/09 06:16:22;;;;;;;7.20;6.90;;;;;;;32.57;30.63;100137.88;5056745;28;20020;-60
2022/06/09 06:18:48;;;;;;;7.10;6.80;;;;;;;35.00;27.88;100146.50;5048640;28;20036;-61
2022/06/09 06:21:16;;;;;;;6.97;6.68;;;;;;;34.30;28.04;100147.44;5043319;28;20055;-59
2022/06/09 06:23:42;;;;;;;7.10;6.80;;;;;;;30.84;32.42;100138.09;5043683;28;20065;-60
2022/06/09 06:26:07;;;;;;;7.00;6.70;;;;;;;30.52;33.20;100131.88;5048344;28;20031;-61
2022/06/09 06:28:33;;;;;;;7.00;6.70;;;;;;;36.72;24.95;100141.66;5058700;28;20028;-60
2022/06/09 06:30:58;;;;;;;7.00;6.70;;;;;;;34.49;27.60;100140.56;5050004;28;20476;-61
2022/06/09 06:33:25;;;;;;;7.00;6.70;;;;;;;31.29;31.74;100132.38;5048571;28;20104;-62
2022/06/09 06:35:50;;;;;;;7.03;6.72;;;;;;;29.49;34.51;100128.53;5056472;28;20031;-62
2022/06/09 06:38:16;;;;;;;7.10;6.80;;;;;;;32.83;29.93;100124.00;5040364;28;20025;-62
2022/06/09 06:40:42;;;;;;;7.15;6.85;;;;;;;33.76;28.48;100125.50;5041977;28;20039;-63
2022/06/09 06:43:08;;;;;;;7.10;6.80;;;;;;;35.45;26.16;100121.44;5049173;28;20429;-62
2022/06/09 06:45:33;;;;;;;7.00;6.70;;;;;;;32.04;30.53;100122.75;5049588;28;20049;-62
2022/06/09 06:47:59;;;;;;;7.00;6.70;;;;;;;32.98;28.38;100119.88;5063616;28;20028;-62
2022/06/09 06:50:25;;;;;;;7.03;6.72;;;;;;;32.70;29.41;100117.63;5053387;28;20086;-61
2022/06/09 06:52:51;;;;;;;7.00;6.70;;;;;;;30.75;30.81;100115.38;5057206;28;20037;-61
2022/06/09 06:55:19;;;;;;;7.05;6.75;;;;;;;31.80;29.76;100111.50;5046461;28;20024;-61
2022/06/09 06:57:45;;;;;;;7.07;6.78;;;;;;;33.11;28.20;100110.53;5039035;28;20024;-60
2022/06/09 07:00:15;;;;;;;6.90;6.60;;;;;;;32.93;28.18;100109.88;5045966;28;20024;-63
2022/06/09 07:02:41;;;;;;;7.00;6.70;;;;;;;33.63;26.23;100121.09;5052308;28;20073;-63
2022/06/09 07:05:08;;;;;;;7.03;6.72;;;;;;;32.92;27.00;100118.47;5046444;28;20017;-63
2022/06/09 07:07:38;;;;;;;6.80;6.50;;;;;;;35.40;23.96;100105.97;5058727;28;20021;-63
2022/06/09 07:10:05;;;;;;;6.75;6.45;;;;;;;34.96;25.03;100115.25;5055201;28;20025;-61
2022/06/09 07:12:31;;;;;;;6.90;6.60;;;;;;;31.81;28.85;100108.47;5052939;28;20040;-61
2022/06/09 07:14:56;;;;;;;6.90;6.60;;;;;;;33.48;26.97;100105.22;5050064;28;20116;-61
2022/06/09 07:17:22;;;;;;;7.07;6.78;;;;;;;32.43;27.18;100090.63;5050130;28;20548;-61
2022/06/09 07:19:48;;;;;;;6.90;6.60;;;;;;;36.52;23.43;100107.66;5051973;28;20028;-62
2022/06/09 07:22:13;;;;;;;6.63;6.32;;;;;;;34.20;25.95;100105.75;5047320;28;20027;-62
2022/06/09 07:24:39;;;;;;;7.10;6.80;;;;;;;34.25;25.26;100105.53;5044806;28;20115;-62
2022/06/09 07:27:05;;;;;;;6.90;6.60;;;;;;;34.63;25.57;100097.72;5058551;28;20055;-62
2022/06/09 07:29:31;;;;;;;6.80;6.50;;;;;;;35.90;23.74;100093.50;5053781;28;20093;-62
2022/06/09 07:31:57;;;;;;;7.10;6.80;;;;;;;35.32;25.14;100095.03;5049931;28;20392;-63
2022/06/09 07:34:22;;;;;;;7.10;6.80;;;;;;;33.43;27.38;100100.78;5056138;28;20059;-63
2022/06/09 07:36:50;;;;;;;7.00;6.70;;;;;;;33.06;27.21;100113.53;5049340;28;20381;-61
2022/06/09 07:39:15;;;;;;;6.90;6.60;;;;;;;31.81;29.61;100097.50;5050735;28;20020;-62
2022/06/09 07:41:41;;;;;;;6.90;6.60;;;;;;;33.44;27.13;100096.06;5048251;28;20044;-62
2022/06/09 07:44:09;;;;;;;7.07;6.78;;;;;;;33.18;28.22;100102.56;5044754;28;20489;-62
2022/06/09 07:46:34;;;;;;;6.88;6.57;;;;;;;32.01;28.75;100106.94;5052274;28;20106;-62
2022/06/09 07:49:01;;;;;;;7.00;6.70;;;;;;;31.52;29.50;100105.59;5044682;28;20545;-63
2022/06/09 07:51:28;;;;;;;7.00;6.70;;;;;;;30.84;31.09;100102.47;5061287;28;20021;-63
2022/06/09 07:53:54;;;;;;;7.38;7.07;;;;;;;31.36;30.88;100099.78;5054908;28;20032;-64
2022/06/09 07:56:21;;;;;;;7.00;6.70;;;;;;;32.30;29.83;100092.44;5039194;28;20029;-63
2022/06/09 07:58:46;;;;;;;6.78;6.47;;;;;;;32.80;27.97;100097.19;5046894;28;20082;-61
2022/06/09 08:01:13;;;;;;;7.00;6.70;;;;;;;31.68;29.67;100100.41;5044584;28;20032;-62
2022/06/09 08:03:40;;;;;;;6.85;6.55;;;;;;;31.43;29.39;100104.78;5055614;28;20017;-61
2022/06/09 08:06:07;;;;;;;6.82;6.53;;;;;;;29.03;33.07;100092.19;5047894;28;20133;-62
2022/06/09 08:08:34;;;;;;;7.10;6.80;;;;;;;31.04;30.64;100101.88;5051469;28;20029;-63
2022/06/09 08:11:00;;;;;;;6.70;6.40;;;;;;;30.60;30.25;100099.34;5055897;28;20032;-62
2022/06/09 08:13:26;;;;;;;7.00;6.70;;;;;;;31.93;29.13;100093.25;5047687;28;20049;-62
2022/06/09 08:15:53;;;;;;;7.15;6.85;;;;;;;31.65;29.15;100093.59;5050989;28;20020;-63
2022/06/09 08:18:18;;;;;;;6.90;6.60;;;;;;;32.22;28.85;100106.22;5045645;28;20112;-62
2022/06/09 08:20:44;;;;;;;6.97;6.68;;;;;;;32.56;28.23;100080.56;5056958;28;20146;-62
2022/06/09 08:23:12;;;;;;;6.93;6.63;;;;;;;32.83;28.08;100077.28;5051363;28;20021;-63
2022/06/09 08:25:39;;;;;;;6.78;6.47;;;;;;;31.43;30.17;100093.81;5041933;28;20031;-64
2022/06/09 08:28:06;;;;;;;6.88;6.57;;;;;;;31.85;27.38;100090.19;5057696;28;20047;-63
2022/06/09 08:30:33;;;;;;;6.90;6.60;;;;;;;32.07;25.25;100091.91;5054140;28;20062;-62
2022/06/09 08:32:58;;;;;;;6.93;6.63;;;;;;;33.12;24.61;100086.59;5049929;28;20033;-62
2022/06/09 08:35:25;;;;;;;7.00;6.70;;;;;;;33.39;25.37;100093.53;5048440;28;20028;-61
2022/06/09 08:37:51;;;;;;;6.90;6.60;;;;;;;32.81;26.24;100084.25;5050857;28;20131;-60
2022/06/09 08:40:41;;;;;;;6.75;6.45;;;;;;;31.87;25.01;100092.63;5041370;28;20033;-60
2022/06/09 08:43:32;;;;;;;6.57;6.28;;;;;;;31.42;26.92;100087.53;5039824;28;20029;-61
2022/06/09 08:46:06;;;;;;;6.90;6.60;;;;;;;32.60;26.03;100082.28;5049682;28;20049;-61
2022/06/09 08:48:39;;;;;;;6.70;6.40;;;;;;;30.59;27.71;100105.97;5052481;28;20126;-60
2022/06/09 08:51:17;;;;;;;6.75;6.45;;;;;;;30.93;26.48;100089.63;5051082;28;20025;-61
2022/06/09 08:53:52;;;;;;;6.47;6.18;;;;;;;31.43;26.98;100083.66;5052863;28;20024;-61
2022/06/09 08:56:26;;;;;;;6.82;6.53;;;;;;;30.22;28.17;100089.75;5045146;28;20108;-60
2022/06/09 08:59:12;;;;;;;6.20;6.00;;;;;;;30.39;28.73;100097.22;5050047;28;20480;-60
2022/06/09 09:01:50;;;;;;;6.90;6.60;;;;;;;30.98;28.26;100073.00;5053393;28;20032;-61
2022/06/09 09:04:30;;;;;;;6.80;6.50;;;;;;;31.04;27.67;100069.00;5054207;28;20441;-61
2022/06/09 09:07:15;;;;;;;6.88;6.57;;;;;;;29.42;29.66;100077.84;5053796;28;20392;-61
2022/06/09 09:09:42;;;;;;;6.63;6.32;;;;;;;29.82;29.31;100067.03;5053518;28;20029;-61
2022/06/09 09:12:22;;;;;;;6.65;6.35;;;;;;;31.82;26.76;100062.63;5053050;28;20021;-61
2022/06/09 09:15:31;;;;;;;6.47;6.18;;;;;;;31.55;26.97;100058.31;5053271;28;20041;-61
2022/06/09 09:18:00;;;;;;;6.60;6.30;;;;;;;30.91;28.26;100059.00;5042427;28;20040;-61
2022/06/09 09:20:37;;;;;;;6.60;6.30;;;;;;;29.98;29.54;100081.91;5053947;28;20090;-62
2022/06/09 09:23:11;;;;;;;6.75;6.45;;;;;;;31.14;27.67;100056.09;5053142;28;20024;-61
2022/06/09 09:25:54;;;;;;;6.88;6.57;;;;;;;31.49;27.81;100049.44;5048050;28;20025;-61
2022/06/09 09:28:23;;;;;;;6.60;6.30;;;;;;;29.64;29.38;100070.78;5053693;28;20492;-61
2022/06/09 09:31:00;;;;;;;6.60;6.30;;;;;;;30.83;28.17;100053.50;5052482;28;20155;-60
2022/06/09 09:33:28;;;;;;;6.32;6.10;;;;;;;30.26;29.24;100077.06;5053850;28;20032;-61
2022/06/09 09:36:00;;;;;;;6.70;6.40;;;;;;;29.78;30.67;100055.09;5053296;28;20025;-61
2022/06/09 09:38:39;;;;;;;6.78;6.47;;;;;;;28.53;31.17;100069.50;5052839;28;20099;-61
2022/06/09 09:41:05;;;;;;;6.57;6.28;;;;;;;28.13;32.13;100055.56;5053654;28;20070;-61
2022/06/09 09:43:40;;;;;;;6.57;6.28;;;;;;;28.78;31.17;100044.38;5053313;28;20551;-61
2022/06/09 09:46:25;;;;;;;7.00;6.70;;;;;;;30.22;29.77;100045.16;5052767;28;20531;-61
2022/06/09 09:48:51;;;;;;;6.60;6.30;;;;;;;30.09;28.70;100040.63;5053178;28;20062;-61
2022/06/09 09:51:29;;;;;;;7.03;6.72;;;;;;;29.54;28.87;100077.34;5045388;28;20099;-60
2022/06/09 09:53:56;;;;;;;6.70;6.40;;;;;;;29.11;29.85;100045.00;5054439;28;20477;-60
2022/06/09 09:56:32;;;;;;;7.00;6.70;;;;;;;29.51;28.89;100071.66;5054507;28;20098;-61
2022/06/09 09:59:00;;;;;;;6.72;6.43;;;;;;;29.74;27.70;100040.44;5044818;28;20068;-61
2022/06/09 10:01:30;;;;;;;6.88;6.57;;;;;;;29.80;28.51;100047.38;5056546;28;20054;-61
2022/06/09 10:09:53;;;;;;;6.72;6.43;;;;;;;29.66;29.28;100042.00;5056641;28;20388;-61
2022/06/09 10:12:34;;;;;;;6.60;6.30;;;;;;;30.17;28.45;100050.78;5050932;28;20037;-62
2022/06/09 10:15:11;;;;;;;6.90;6.60;;;;;;;29.86;29.24;100048.88;5053262;28;20020;-62
2022/06/09 10:17:54;;;;;;;6.80;6.50;;;;;;;29.94;28.63;100033.63;5049539;28;20115;-62
2022/06/09 10:20:36;;;;;;;6.57;6.28;;;;;;;30.89;27.92;100042.09;5057986;28;20025;-63
2022/06/09 10:23:16;;;;;;;6.43;6.13;;;;;;;31.12;26.65;100037.22;5040479;28;20025;-60
2022/06/09 10:26:19;;;;;;;6.53;6.22;;;;;;;30.77;28.07;100023.53;5043173;28;20037;-61
2022/06/09 10:28:59;;;;;;;6.65;6.35;;;;;;;30.41;28.49;100023.81;5041008;28;20027;-61
2022/06/09 10:31:41;;;;;;;6.78;6.47;;;;;;;30.61;27.22;100036.06;5052133;28;20033;-62
2022/06/09 10:34:25;;;;;;;6.70;6.40;;;;;;;30.63;27.70;100038.47;5049870;28;20032;-61
2022/06/09 10:37:10;;;;;;;6.60;6.30;;;;;;;29.77;27.92;100039.81;5051395;28;20028;-60
2022/06/09 10:39:38;;;;;;;6.72;6.43;;;;;;;29.76;28.70;100037.41;5052576;28;20363;-61
2022/06/09 10:42:36;;;;;;;6.57;6.28;;;;;;;29.42;28.98;100036.88;5048616;28;20028;-61
2022/06/09 10:45:16;;;;;;;6.90;6.60;;;;;;;29.49;29.25;100030.97;5035931;28;20076;-61
2022/06/09 10:57:16;;;;;;;6.60;6.30;;;;;;;29.28;28.55;100027.94;5044331;28;19927;-62
2022/06/09 10:59:44;;;;;;;6.30;6.05;;;;;;;29.50;28.52;100021.66;5048642;28;20061;-61
2022/06/09 11:02:21;;;;;;;6.90;6.60;;;;;;;29.91;28.22;100007.72;5054229;28;20049;-62
2022/06/09 11:04:49;;;;;;;6.40;6.10;;;;;;;29.99;27.11;99997.94;5046909;28;20028;-63
2022/06/09 11:07:43;;;;;;;6.70;6.40;;;;;;;29.89;27.74;100004.50;5060268;28;20047;-63
2022/06/09 11:10:49;;;;;;;6.65;6.35;;;;;;;29.75;29.49;100017.47;5045510;28;20029;-64
2022/06/09 11:13:41;;;;;;;6.40;6.10;;;;;;;29.20;28.14;100015.03;5017698;28;20143;-64
2022/06/09 11:16:22;;;;;;;6.50;6.20;;;;;;;30.17;26.86;99998.78;5025175;28;20036;-63
2022/06/09 11:19:19;;;;;;;6.63;6.32;;;;;;;29.82;28.84;99995.13;5049297;28;20057;-64
2022/06/09 11:22:08;;;;;;;6.60;6.30;;;;;;;29.45;28.59;100049.09;5033743;28;20036;-64
2022/06/09 11:24:39;;;;;;;6.55;6.25;;;;;;;29.35;28.30;100020.09;5036246;28;20445;-61
2022/06/09 11:27:29;;;;;;;6.45;6.15;;;;;;;29.57;28.85;100002.09;5047841;28;20039;-62
2022/06/09 11:30:13;;;;;;;6.68;6.38;;;;;;;29.41;29.52;99991.53;5039775;28;20079;-64
2022/06/09 11:32:41;;;;;;;7.00;6.70;;;;;;;30.14;28.49;100002.19;5047289;28;20158;-62
2022/06/09 11:35:40;;;;;;;6.80;6.50;;;;;;;30.15;28.31;99973.69;5045930;28;20518;-62
2022/06/09 11:38:30;;;;;;;6.75;6.45;;;;;;;30.38;27.93;99985.31;5043701;28;20033;-62
2022/06/09 11:41:20;;;;;;;6.57;6.28;;;;;;;30.27;27.96;99969.22;5046714;28;20016;-63
2022/06/09 11:44:16;;;;;;;6.70;6.40;;;;;;;29.67;28.36;99988.13;5060271;28;20032;-62
2022/06/09 11:46:43;;;;;;;6.72;6.43;;;;;;;30.44;28.35;99970.38;5054316;28;20518;-62
2022/06/09 11:49:29;;;;;;;6.80;6.50;;;;;;;30.76;28.26;99972.63;5054436;28;20036;-62
2022/06/09 11:51:56;;;;;;;7.07;6.78;;;;;;;30.31;27.65;99969.38;5045055;28;20395;-62
2022/06/09 11:54:54;;;;;;;6.88;6.57;;;;;;;30.18;28.40;99981.25;5055644;28;20111;-62
2022/06/09 11:57:40;;;;;;;6.57;6.28;;;;;;;30.31;26.23;99987.72;5052635;28;20033;-63
2022/06/09 12:00:27;;;;;;;6.65;6.35;;;;;;;30.63;26.13;99978.25;5044118;28;20558;-62
2022/06/09 12:03:12;;;;;;;6.75;6.45;;;;;;;30.15;26.50;99957.28;5051413;28;20032;-61
2022/06/09 12:05:46;;;;;;;;;;;;;;;30.03;27.15;99976.19;5050674;28;20032;-62